Forest Home, Alabama
Current Conditions -  °F | °C
As of 8:56 PM on Saturday 22 Nov 2014 (Local Time) from KPRN Reporting Station
Light Rain Light Rain  
Wind Chill: 14°   Ceiling: 800
Heat Index: 14°   Visibility: 6mi
Dew Point: 13°   Wind: 8mph
Humidity: 90%   Direction: 90°E
Pressure: 30.12"   Gusts: NA
Location:  31.86°N, 86.84°W
Report Text: KPRN 230256Z AUTO 09007KT 6SM -RA BR OVC008 14/13 A3012 RMK AO2 RAB12 CIG 005V010 SLP197 P0001 60002 T01440128 56014
Loading
Personal Weather Stations






























Interactive Weather Map New forecast layout! Learn more

10-Day Weather Forecast

Advertisements
Track Severe Weather on mobile